Observation data for Saint Lawrence on 11/14/2019      Previous  Date       Current Mesonet Observations  Soil Data  Daily Summary Page  Observations in Plain Language
KST1 140600Z 15005KT 02/00 A3004 RMK A01 T00180004  RH  091%=      5-min Rain = 0
KST1 140605Z 14005KT 02/00 A3004 RMK A01 T00170003  RH  091%=      5-min Rain = 0
KST1 140610Z 14004KT 02/00 A3004 RMK A01 T00160002  RH  092%=      5-min Rain = 0
KST1 140615Z 14005KT 01/00 A3004 RMK A01 T00140001  RH  092%=      5-min Rain = 0
KST1 140620Z 13005KT 01/00 A3005 RMK A01 T00140002  RH  093%=      5-min Rain = 0
KST1 140625Z 14005KT 01/00 A3005 RMK A01 T00140003  RH  093%=      5-min Rain = 0
KST1 140630Z 14005KT 02/01 A3005 RMK A01 T00160005  RH  094%=      5-min Rain = 0
KST1 140635Z 13004KT 02/01 A3005 RMK A01 T00150005  RH  094%=      5-min Rain = 0
KST1 140640Z 14004KT 01/00 A3005 RMK A01 T00130003  RH  094%=      5-min Rain = 0
KST1 140645Z 14005KT 01/00 A3005 RMK A01 T00110001  RH  094%=      5-min Rain = 0
KST1 140650Z 14004KT 01/00 A3005 RMK A01 T00100000  RH  094%=      5-min Rain = 0
KST1 140655Z 14003KT 01/00 A3005 RMK A01 T00120002  RH  095%=      5-min Rain = 0
KST1 140700Z 12003KT 01/00 A3005 RMK A01 T00130004  RH  095%=      5-min Rain = 0
KST1 140705Z 11002KT 01/00 A3006 RMK A01 T00120004  RH  095%=      5-min Rain = 0
KST1 140710Z 11002KT 01/M00 A3006 RMK A01 T00071001  RH  095%=      5-min Rain = 0
KST1 140715Z 11003KT 01/00 A3006 RMK A01 T00080000  RH  095%=      5-min Rain = 0
KST1 140720Z 10002KT 01/00 A3006 RMK A01 T00090001  RH  096%=      5-min Rain = 0
KST1 140725Z 07002KT 01/M00 A3006 RMK A01 T00071001  RH  095%=      5-min Rain = 0
KST1 140730Z 06002KT 01/M00 A3006 RMK A01 T00051003  RH  096%=      5-min Rain = 0
KST1 140735Z 05002KT 00/M00 A3007 RMK A01 T00041003  RH  096%=      5-min Rain = 0
KST1 140740Z 05002KT 00/M01 A3007 RMK A01 T00011006  RH  096%=      5-min Rain = 0
KST1 140745Z 05002KT 00/M01 A3007 RMK A01 T00021006  RH  096%=      5-min Rain = 0
KST1 140750Z 05002KT 00/01 A3007 RMK A01 T00-000-8  RH  096%=      5-min Rain = 0
KST1 140755Z 04003KT 00/01 A3007 RMK A01 T00-000-7  RH  096%=      5-min Rain = 0
KST1 140800Z 03004KT M00/M01 A3007 RMK A01 T10021009  RH  096%=      5-min Rain = 0
KST1 140805Z 03004KT M00/M01 A3007 RMK A01 T10031010  RH  097%=      5-min Rain = 0
KST1 140810Z 02005KT M00/M01 A3007 RMK A01 T10031010  RH  097%=      5-min Rain = 0
KST1 140815Z 00006KT M01/M01 A3007 RMK A01 T10051011  RH  097%=      5-min Rain = 0
KST1 140820Z 01004KT M00/M01 A3008 RMK A01 T10041009  RH  097%=      5-min Rain = 0
KST1 140825Z 04003KT M00/M01 A3009 RMK A01 T10011006  RH  098%=      5-min Rain = 0
KST1 140830Z 06002KT 00/01 A3009 RMK A01 T00-000-5  RH  098%=      5-min Rain = 0
KST1 140835Z 06003KT 00/01 A3009 RMK A01 T00-000-5  RH  098%=      5-min Rain = 0
KST1 140840Z 06003KT M00/M01 A3009 RMK A01 T10021007  RH  098%=      5-min Rain = 0
KST1 140845Z 04003KT M00/M01 A3009 RMK A01 T10031008  RH  098%=      5-min Rain = 0
KST1 140850Z 04003KT M00/M01 A3009 RMK A01 T10021007  RH  098%=      5-min Rain = 0
KST1 140855Z 06003KT M00/M01 A3009 RMK A01 T10021006  RH  098%=      5-min Rain = 0
KST1 140900Z 05003KT M00/M01 A3009 RMK A01 T10031007  RH  098%=      5-min Rain = 0
KST1 140905Z 03004KT M00/M01 A3009 RMK A01 T10021006  RH  098%=      5-min Rain = 0
KST1 140910Z 02004KT M01/M01 A3009 RMK A01 T10091013  RH  098%=      5-min Rain = 0
KST1 140915Z 03003KT M01/M02 A301 RMK A01 T10111016  RH  098%=      5-min Rain = 0
KST1 140920Z 03003KT M01/M01 A301 RMK A01 T10081012  RH  098%=      5-min Rain = 0
KST1 140925Z 05003KT M00/M01 A3011 RMK A01 T10041007  RH  099%=      5-min Rain = 0
KST1 140930Z 04004KT M00/M01 A3011 RMK A01 T10031006  RH  099%=      5-min Rain = 0
KST1 140935Z 03004KT M01/M01 A3011 RMK A01 T10051008  RH  099%=      5-min Rain = 0
KST1 140940Z 02004KT M01/M01 A3011 RMK A01 T10091013  RH  098%=      5-min Rain = 0
KST1 140945Z 05003KT M01/M02 A3011 RMK A01 T10121016  RH  098%=      5-min Rain = 0
KST1 140950Z 08003KT M01/M01 A3011 RMK A01 T10091012  RH  099%=      5-min Rain = 0
KST1 140955Z 08004KT M01/M01 A3012 RMK A01 T10081011  RH  099%=      5-min Rain = 0
KST1 141000Z 08004KT M01/M02 A3012 RMK A01 T10121015  RH  099%=      5-min Rain = 0
KST1 141005Z 07004KT M01/M01 A3012 RMK A01 T10101013  RH  099%=      5-min Rain = 0
KST1 141010Z 07005KT M01/M01 A3012 RMK A01 T10051008  RH  099%=      5-min Rain = 0
KST1 141015Z 07005KT M00/M01 A3012 RMK A01 T10031006  RH  099%=      5-min Rain = 0
KST1 141020Z 07005KT M01/M01 A3012 RMK A01 T10101012  RH  099%=      5-min Rain = 0
KST1 141025Z 08004KT M00/M01 A3013 RMK A01 T10041007  RH  100%=      5-min Rain = 0
KST1 141030Z 08003KT M00/M00 A3013 RMK A01 T10021004  RH  100%=      5-min Rain = 0
KST1 141035Z 09004KT M01/M01 A3013 RMK A01 T10081011  RH  099%=      5-min Rain = 0
KST1 141040Z 10005KT M01/M02 A3013 RMK A01 T10131016  RH  099%=      5-min Rain = 0
KST1 141045Z 11004KT M01/M02 A3013 RMK A01 T10131016  RH  099%=      5-min Rain = 0
KST1 141050Z 09003KT M01/M02 A3013 RMK A01 T10121015  RH  099%=      5-min Rain = 0
KST1 141055Z 08003KT M01/M01 A3014 RMK A01 T10091011  RH  100%=      5-min Rain = 0
KST1 141100Z 10003KT M01/M01 A3014 RMK A01 T10111013  RH  100%=      5-min Rain = 0
KST1 141105Z 10002KT M01/M01 A3014 RMK A01 T10101012  RH  100%=      5-min Rain = 0
KST1 141110Z 09003KT M01/M01 A3014 RMK A01 T10071008  RH  100%=      5-min Rain = 0
KST1 141115Z 09003KT M01/M01 A3015 RMK A01 T10071009  RH  100%=      5-min Rain = 0
KST1 141120Z 11002KT M01/M02 A3015 RMK A01 T10141016  RH  100%=      5-min Rain = 0
KST1 141125Z 11002KT M01/M02 A3015 RMK A01 T10141016  RH  100%=      5-min Rain = 0
KST1 141130Z 10002KT M01/M02 A3015 RMK A01 T10131015  RH  100%=      5-min Rain = 0
KST1 141135Z 08002KT M02/M02 A3015 RMK A01 T10151017  RH  100%=      5-min Rain = 0
KST1 141140Z 04002KT M02/M02 A3015 RMK A01 T10171019  RH  100%=      5-min Rain = 0
KST1 141145Z 07002KT M02/M03 A3016 RMK A01 T10231025  RH  100%=      5-min Rain = 0
KST1 141150Z 09002KT M02/M02 A3016 RMK A01 T10231024  RH  100%=      5-min Rain = 0
KST1 141155Z 08001KT M02/M02 A3016 RMK A01 T10201021  RH  100%=      5-min Rain = 0
KST1 141200Z 09000KT M02/M02 A3016 RMK A01 T10201022  RH  100%=      5-min Rain = 0
KST1 141205Z 00000KT M02/M02 A3016 RMK A01 T10211022  RH  100%=      5-min Rain = 0
KST1 141210Z 03000KT M02/M02 A3016 RMK A01 T10221024  RH  100%=      5-min Rain = 0
KST1 141215Z 01001KT M02/M03 A3016 RMK A01 T10231025  RH  100%=      5-min Rain = 0
KST1 141220Z 36002KT M02/M03 A3017 RMK A01 T10231025  RH  100%=      5-min Rain = 0
KST1 141225Z 35004KT M02/M03 A3017 RMK A01 T10241025  RH  100%=      5-min Rain = 0
KST1 141230Z 35005KT M02/M03 A3018 RMK A01 T10241025  RH  100%=      5-min Rain = 0
KST1 141235Z 35005KT M03/M03 A3018 RMK A01 T10251026  RH  100%=      5-min Rain = 0
KST1 141240Z 35004KT M03/M03 A3018 RMK A01 T10261027  RH  100%=      5-min Rain = 0
KST1 141245Z 35004KT M03/M03 A3018 RMK A01 T10261027  RH  100%=      5-min Rain = 0
KST1 141250Z 35005KT M03/M03 A3019 RMK A01 T10271028  RH  100%=      5-min Rain = 0
KST1 141255Z 35005KT M03/M03 A3019 RMK A01 T10271028  RH  100%=      5-min Rain = 0
KST1 141300Z 36007KT M03/M03 A3019 RMK A01 T10261027  RH  100%=      5-min Rain = 0
KST1 141305Z 01008KT M02/M02 A3019 RMK A01 T10181019  RH  100%=      5-min Rain = 0
KST1 141310Z 01010KT M00/M00 A3019 RMK A01 T10011003  RH  100%=      5-min Rain = 0
KST1 141315Z 01010KT 01/01 A3019 RMK A01 T00070005  RH  100%=      5-min Rain = 0
KST1 141320Z 02010KT 01/01 A302 RMK A01 T00090007  RH  100%=      5-min Rain = 0
KST1 141325Z 02010KT 01/01 A302 RMK A01 T00110009  RH  100%=      5-min Rain = 0
KST1 141330Z 02011KT 01/01 A302 RMK A01 T00130011  RH  100%=      5-min Rain = 0
KST1 141335Z 01012KT 02/01 A302 RMK A01 T00150013  RH  100%=      5-min Rain = 0
KST1 141340Z 01011KT 02/02 A3021 RMK A01 T00160015  RH  100%=      5-min Rain = 0
KST1 141345Z 02011KT 02/02 A3021 RMK A01 T00180017  RH  100%=      5-min Rain = 0
KST1 141350Z 02011KT 02/02 A3022 RMK A01 T00200017  RH  099%=      5-min Rain = 0
KST1 141355Z 02011KT 02/02 A3022 RMK A01 T00210016  RH  097%=      5-min Rain = 0
KST1 141400Z 02012KT 02/02 A3022 RMK A01 T00230015  RH  096%=      5-min Rain = 0
KST1 141405Z 03011KT 03/02 A3023 RMK A01 T00250015  RH  094%=      5-min Rain = 0
KST1 141410Z 03010KT 03/02 A3023 RMK A01 T00270015  RH  093%=      5-min Rain = 0
KST1 141415Z 03011KT 03/01 A3024 RMK A01 T00280014  RH  092%=      5-min Rain = 0
KST1 141420Z 03011KT 03/01 A3024 RMK A01 T00300014  RH  091%=      5-min Rain = 0
KST1 141425Z 02011KT 03/01 A3025 RMK A01 T00310014  RH  089%=      5-min Rain = 0
KST1 141430Z 02011KT 03/01 A3026 RMK A01 T00330014  RH  088%=      5-min Rain = 0
KST1 141435Z 02011KT 04/01 A3026 RMK A01 T00360014  RH  087%=      5-min Rain = 0
KST1 141440Z 02011G16KT 04/01 A3027 RMK A01 T00380014  RH  085%=      5-min Rain = 0
KST1 141445Z 02012KT 04/01 A3027 RMK A01 T00400014  RH  084%=      5-min Rain = 0
KST1 141450Z 02013KT 04/01 A3027 RMK A01 T00420014  RH  083%=      5-min Rain = 0
KST1 141455Z 02014KT 05/01 A3027 RMK A01 T00450014  RH  081%=      5-min Rain = 0
KST1 141500Z 02013KT 05/01 A3028 RMK A01 T00470013  RH  080%=      5-min Rain = 0
KST1 141505Z 02013KT 05/01 A3029 RMK A01 T00500013  RH  078%=      5-min Rain = 0
KST1 141510Z 02012G17KT 05/01 A3029 RMK A01 T00520014  RH  077%=      5-min Rain = 0
KST1 141515Z 01011G16KT 06/01 A303 RMK A01 T00550014  RH  076%=      5-min Rain = 0
KST1 141520Z 01013KT 06/01 A303 RMK A01 T00550012  RH  074%=      5-min Rain = 0
KST1 141525Z 01014G19KT 06/01 A3031 RMK A01 T00560011  RH  073%=      5-min Rain = 0
KST1 141530Z 02014KT 06/01 A3031 RMK A01 T00570008  RH  072%=      5-min Rain = 0
KST1 141535Z 02017G22KT 06/00 A3032 RMK A01 T00580004  RH  069%=      5-min Rain = 0
KST1 141540Z 02017KT 06/00 A3032 RMK A01 T00600003  RH  068%=      5-min Rain = 0
KST1 141545Z 02014G19KT 07/01 A3032 RMK A01 T00650005  RH  067%=      5-min Rain = 0
KST1 141550Z 02015G20KT 07/00 A3033 RMK A01 T00680003  RH  064%=      5-min Rain = 0
KST1 141555Z 03016G22KT 07/00 A3033 RMK A01 T00700000  RH  062%=      5-min Rain = 0
KST1 141600Z 03016G21KT 07/M00 A3033 RMK A01 T00711003  RH  060%=      5-min Rain = 0
KST1 141605Z 03015KT 08/M00 A3033 RMK A01 T00751003  RH  059%=      5-min Rain = 0
KST1 141610Z 03016G21KT 08/M01 A3033 RMK A01 T00761007  RH  056%=      5-min Rain = 0
KST1 141615Z 04015G20KT 08/M01 A3033 RMK A01 T00781007  RH  056%=      5-min Rain = 0
KST1 141620Z 03018KT 08/M01 A3033 RMK A01 T00781013  RH  053%=      5-min Rain = 0
KST1 141625Z 03016KT 08/M01 A3034 RMK A01 T00811012  RH  052%=      5-min Rain = 0
KST1 141630Z 03017KT 08/M01 A3034 RMK A01 T00821013  RH  052%=      5-min Rain = 0
KST1 141635Z 03018KT 08/M02 A3034 RMK A01 T00831017  RH  050%=      5-min Rain = 0
KST1 141640Z 03017KT 08/M02 A3034 RMK A01 T00831019  RH  049%=      5-min Rain = 0
KST1 141645Z 03017KT 09/M02 A3034 RMK A01 T00871019  RH  048%=      5-min Rain = 0
KST1 141650Z 03017KT 09/M02 A3034 RMK A01 T00901021  RH  046%=      5-min Rain = 0
KST1 141655Z 03016KT 09/M02 A3034 RMK A01 T00921023  RH  045%=      5-min Rain = 0
KST1 141700Z 03015KT 09/M02 A3034 RMK A01 T00941023  RH  044%=      5-min Rain = 0
KST1 141705Z 03014KT 10/M02 A3034 RMK A01 T00971023  RH  043%=      5-min Rain = 0
KST1 141710Z 03015KT 10/M02 A3034 RMK A01 T01011023  RH  042%=      5-min Rain = 0
KST1 141715Z 04015KT 10/M03 A3034 RMK A01 T01011027  RH  041%=      5-min Rain = 0
KST1 141720Z 03015KT 10/M03 A3034 RMK A01 T01041027  RH  040%=      5-min Rain = 0
KST1 141725Z 03015G20KT 11/M03 A3034 RMK A01 T01061030  RH  039%=      5-min Rain = 0
KST1 141730Z 04015KT 10/M03 A3034 RMK A01 T01041031  RH  039%=      5-min Rain = 0
KST1 141735Z 03014KT 11/M03 A3034 RMK A01 T01091029  RH  038%=      5-min Rain = 0
KST1 141740Z 03014KT 11/M03 A3034 RMK A01 T01091029  RH  038%=      5-min Rain = 0
KST1 141745Z 04015G20KT 11/M03 A3034 RMK A01 T01091031  RH  038%=      5-min Rain = 0
KST1 141750Z 03014KT 11/M03 A3034 RMK A01 T01081031  RH  038%=      5-min Rain = 0
KST1 141755Z 03015KT 11/M03 A3034 RMK A01 T01101032  RH  037%=      5-min Rain = 0
KST1 141800Z 03014G19KT 11/M03 A3034 RMK A01 T01111032  RH  037%=      5-min Rain = 0
KST1 141805Z 03015G20KT 11/M03 A3034 RMK A01 T01121034  RH  036%=      5-min Rain = 0
KST1 141810Z 03014G19KT 11/M04 A3034 RMK A01 T01121035  RH  036%=      5-min Rain = 0
KST1 141815Z 02016KT 12/M03 A3034 RMK A01 T01151033  RH  036%=      5-min Rain = 0
KST1 141820Z 03014G19KT 12/M03 A3034 RMK A01 T01151034  RH  035%=      5-min Rain = 0
KST1 141825Z 02016G22KT 12/M04 A3034 RMK A01 T01151037  RH  035%=      5-min Rain = 0
KST1 141830Z 03014G20KT 11/M04 A3034 RMK A01 T01131036  RH  035%=      5-min Rain = 0
KST1 141835Z 02014KT 12/M04 A3034 RMK A01 T01161035  RH  035%=      5-min Rain = 0
KST1 141840Z 02015KT 12/M04 A3034 RMK A01 T01171035  RH  035%=      5-min Rain = 0
KST1 141845Z 02016KT 12/M04 A3034 RMK A01 T01161037  RH  034%=      5-min Rain = 0
KST1 141850Z 02016G22KT 12/M04 A3034 RMK A01 T01191038  RH  034%=      5-min Rain = 0
KST1 141855Z 03016KT 12/M04 A3034 RMK A01 T01171040  RH  033%=      5-min Rain = 0
KST1 141900Z 03018G23KT 12/M04 A3034 RMK A01 T01181042  RH  033%=      5-min Rain = 0
KST1 141905Z 04014G20KT 12/M04 A3034 RMK A01 T01211039  RH  033%=      5-min Rain = 0
KST1 141910Z 04016G21KT 12/M04 A3033 RMK A01 T01221039  RH  033%=      5-min Rain = 0
KST1 141915Z 03015G23KT 12/M04 A3033 RMK A01 T01191040  RH  033%=      5-min Rain = 0
KST1 141920Z 04016KT 12/M04 A3033 RMK A01 T01221038  RH  033%=      5-min Rain = 0
KST1 141925Z 03013G20KT 12/M04 A3033 RMK A01 T01221038  RH  033%=      5-min Rain = 0
KST1 141930Z 03017KT 12/M04 A3033 RMK A01 T01201038  RH  033%=      5-min Rain = 0
KST1 141935Z 03017KT 12/M04 A3033 RMK A01 T01201035  RH  034%=      5-min Rain = 0
KST1 141940Z 04016G23KT 12/M03 A3032 RMK A01 T01211033  RH  034%=      5-min Rain = 0
KST1 141945Z 03016KT 12/M03 A3032 RMK A01 T01211034  RH  034%=      5-min Rain = 0
KST1 141950Z 04015G20KT 12/M03 A3032 RMK A01 T01231034  RH  034%=      5-min Rain = 0
KST1 141955Z 04016G21KT 12/M03 A3032 RMK A01 T01241034  RH  033%=      5-min Rain = 0
KST1 142000Z 04014G19KT 12/M03 A3032 RMK A01 T01241032  RH  034%=      5-min Rain = 0
KST1 142005Z 02015G21KT 12/M03 A3032 RMK A01 T01241033  RH  034%=      5-min Rain = 0
KST1 142010Z 03015KT 13/M03 A3032 RMK A01 T01251032  RH  034%=      5-min Rain = 0
KST1 142015Z 04015G22KT 13/M03 A3032 RMK A01 T01251030  RH  034%=      5-min Rain = 0
KST1 142020Z 03015KT 12/M03 A3032 RMK A01 T01241030  RH  034%=      5-min Rain = 0
KST1 142025Z 04017G22KT 13/M03 A3032 RMK A01 T01251029  RH  034%=      5-min Rain = 0
KST1 142030Z 05015KT 12/M03 A3031 RMK A01 T01241031  RH  034%=      5-min Rain = 0
KST1 142035Z 05014G19KT 13/M03 A3031 RMK A01 T01271031  RH  034%=      5-min Rain = 0
KST1 142040Z 04013KT 12/M03 A3032 RMK A01 T01241032  RH  034%=      5-min Rain = 0
KST1 142045Z 02015KT 13/M03 A3031 RMK A01 T01251031  RH  034%=      5-min Rain = 0
KST1 142050Z 02014G19KT 13/M03 A3032 RMK A01 T01261031  RH  034%=      5-min Rain = 0
KST1 142055Z 04014G21KT 13/M03 A3032 RMK A01 T01261031  RH  034%=      5-min Rain = 0
KST1 142100Z 03017KT 13/M03 A3032 RMK A01 T01261028  RH  035%=      5-min Rain = 0
KST1 142105Z 03016G22KT 13/M03 A3032 RMK A01 T01251026  RH  035%=      5-min Rain = 0
KST1 142110Z 04015G21KT 13/M02 A3032 RMK A01 T01271024  RH  035%=      5-min Rain = 0
KST1 142115Z 03015G22KT 13/M03 A3032 RMK A01 T01251025  RH  036%=      5-min Rain = 0
KST1 142120Z 04016G21KT 13/M02 A3032 RMK A01 T01261024  RH  036%=      5-min Rain = 0
KST1 142125Z 03016G21KT 12/M02 A3032 RMK A01 T01241022  RH  037%=      5-min Rain = 0
KST1 142130Z 03017G23KT 12/M02 A3032 RMK A01 T01231021  RH  037%=      5-min Rain = 0
KST1 142135Z 02016G21KT 12/M02 A3032 RMK A01 T01241019  RH  037%=      5-min Rain = 0
KST1 142140Z 02017G22KT 12/M02 A3032 RMK A01 T01231018  RH  038%=      5-min Rain = 0
KST1 142145Z 03015G20KT 12/M02 A3032 RMK A01 T01241017  RH  038%=      5-min Rain = 0
KST1 142150Z 03015G20KT 12/M02 A3032 RMK A01 T01241016  RH  038%=      5-min Rain = 0
KST1 142155Z 03015G21KT 12/M02 A3032 RMK A01 T01231017  RH  038%=      5-min Rain = 0
KST1 142200Z 03016G22KT 12/M02 A3032 RMK A01 T01231017  RH  038%=      5-min Rain = 0
KST1 142205Z 04016G21KT 12/M02 A3032 RMK A01 T01201018  RH  039%=      5-min Rain = 0
KST1 142210Z 04016KT 12/M02 A3032 RMK A01 T01201015  RH  039%=      5-min Rain = 0
KST1 142215Z 03014KT 12/M02 A3033 RMK A01 T01191015  RH  040%=      5-min Rain = 0
KST1 142220Z 03014G19KT 12/M02 A3033 RMK A01 T01201016  RH  039%=      5-min Rain = 0
KST1 142225Z 04014KT 12/M02 A3033 RMK A01 T01181019  RH  039%=      5-min Rain = 0
KST1 142230Z 04012KT 12/M02 A3033 RMK A01 T01201018  RH  039%=      5-min Rain = 0
KST1 142235Z 04013G18KT 12/M02 A3033 RMK A01 T01181020  RH  038%=      5-min Rain = 0
KST1 142240Z 05012KT 12/M02 A3033 RMK A01 T01171018  RH  039%=      5-min Rain = 0
KST1 142245Z 03012G18KT 12/M02 A3034 RMK A01 T01171017  RH  040%=      5-min Rain = 0
KST1 142250Z 03013G18KT 12/M02 A3034 RMK A01 T01161017  RH  040%=      5-min Rain = 0
KST1 142255Z 03012KT 11/M02 A3034 RMK A01 T01141018  RH  040%=      5-min Rain = 0
KST1 142300Z 03013KT 11/M02 A3034 RMK A01 T01131019  RH  040%=      5-min Rain = 0
KST1 142305Z 03011KT 11/M02 A3034 RMK A01 T01121019  RH  041%=      5-min Rain = 0
KST1 142310Z 04011KT 11/M02 A3035 RMK A01 T01121019  RH  041%=      5-min Rain = 0
KST1 142315Z 03011KT 11/M02 A3035 RMK A01 T01101021  RH  040%=      5-min Rain = 0
KST1 142320Z 03010KT 11/M02 A3035 RMK A01 T01091021  RH  041%=      5-min Rain = 0
KST1 142325Z 04011KT 11/M02 A3035 RMK A01 T01071022  RH  041%=      5-min Rain = 0
KST1 142330Z 03011KT 11/M02 A3035 RMK A01 T01051023  RH  041%=      5-min Rain = 0
KST1 142335Z 04010KT 10/M02 A3035 RMK A01 T01041023  RH  041%=      5-min Rain = 0
KST1 142340Z 04010KT 10/M02 A3035 RMK A01 T01011024  RH  042%=      5-min Rain = 0
KST1 142345Z 04010KT 10/M02 A3035 RMK A01 T00981024  RH  043%=      5-min Rain = 0
KST1 142350Z 05009KT 10/M02 A3035 RMK A01 T00971024  RH  043%=      5-min Rain = 0
KST1 142355Z 05008KT 09/M02 A3036 RMK A01 T00931023  RH  044%=      5-min Rain = 0
KST1 150000Z 05007KT 09/M02 A3036 RMK A01 T00911023  RH  045%=      5-min Rain = 0
KST1 150005Z 05006KT 09/M02 A3036 RMK A01 T00871024  RH  046%=      5-min Rain = 0
KST1 150010Z 04006KT 08/M02 A3036 RMK A01 T00831024  RH  047%=      5-min Rain = 0
KST1 150015Z 04006KT 08/M02 A3036 RMK A01 T00801024  RH  048%=      5-min Rain = 0
KST1 150020Z 04006KT 08/M02 A3037 RMK A01 T00761024  RH  050%=      5-min Rain = 0
KST1 150025Z 04006KT 07/M02 A3037 RMK A01 T00741023  RH  050%=      5-min Rain = 0
KST1 150030Z 04006KT 07/M02 A3037 RMK A01 T00731023  RH  051%=      5-min Rain = 0
KST1 150035Z 04005KT 07/M02 A3037 RMK A01 T00711024  RH  051%=      5-min Rain = 0
KST1 150040Z 04005KT 07/M02 A3037 RMK A01 T00691024  RH  052%=      5-min Rain = 0
KST1 150045Z 04005KT 07/M02 A3038 RMK A01 T00671024  RH  053%=      5-min Rain = 0
KST1 150050Z 03005KT 07/M02 A3038 RMK A01 T00671024  RH  053%=      5-min Rain = 0
KST1 150055Z 03004KT 07/M02 A3038 RMK A01 T00651024  RH  053%=      5-min Rain = 0
KST1 150100Z 03005KT 07/M02 A3038 RMK A01 T00651023  RH  054%=      5-min Rain = 0
KST1 150105Z 03006KT 06/M02 A3039 RMK A01 T00601024  RH  055%=      5-min Rain = 0
KST1 150110Z 03005KT 06/M02 A3039 RMK A01 T00561022  RH  058%=      5-min Rain = 0
KST1 150115Z 03005KT 06/M02 A3039 RMK A01 T00551022  RH  058%=      5-min Rain = 0
KST1 150120Z 03006KT 06/M02 A3039 RMK A01 T00561021  RH  058%=      5-min Rain = 0
KST1 150125Z 03006KT 06/M02 A3039 RMK A01 T00571021  RH  058%=      5-min Rain = 0
KST1 150130Z 03006KT 06/M02 A3039 RMK A01 T00561022  RH  058%=      5-min Rain = 0
KST1 150135Z 03005KT 05/M02 A304 RMK A01 T00521022  RH  059%=      5-min Rain = 0
KST1 150140Z 03005KT 05/M02 A304 RMK A01 T00511022  RH  060%=      5-min Rain = 0
KST1 150145Z 03004KT 05/M02 A304 RMK A01 T00501023  RH  060%=      5-min Rain = 0
KST1 150150Z 02004KT 05/M02 A3041 RMK A01 T00511020  RH  061%=      5-min Rain = 0
KST1 150155Z 02004KT 05/M02 A3041 RMK A01 T00521021  RH  060%=      5-min Rain = 0
KST1 150200Z 02004KT 05/M02 A3041 RMK A01 T00491022  RH  061%=      5-min Rain = 0
KST1 150205Z 02004KT 05/M02 A3041 RMK A01 T00501019  RH  061%=      5-min Rain = 0
KST1 150210Z 02004KT 05/M02 A3041 RMK A01 T00501019  RH  061%=      5-min Rain = 0
KST1 150215Z 02004KT 05/M02 A3041 RMK A01 T00511019  RH  061%=      5-min Rain = 0
KST1 150220Z 02004KT 05/M02 A3041 RMK A01 T00501019  RH  062%=      5-min Rain = 0
KST1 150225Z 02004KT 05/M02 A3041 RMK A01 T00481020  RH  062%=      5-min Rain = 0
KST1 150230Z 02004KT 04/M02 A3042 RMK A01 T00441021  RH  063%=      5-min Rain = 0
KST1 150235Z 02003KT 04/M02 A3042 RMK A01 T00411021  RH  064%=      5-min Rain = 0
KST1 150240Z 02003KT 04/M02 A3042 RMK A01 T00411019  RH  065%=      5-min Rain = 0
KST1 150245Z 02004KT 05/M02 A3042 RMK A01 T00451017  RH  065%=      5-min Rain = 0
KST1 150250Z 02004KT 04/M02 A3042 RMK A01 T00441018  RH  065%=      5-min Rain = 0
KST1 150255Z 02003KT 04/M02 A3042 RMK A01 T00421019  RH  065%=      5-min Rain = 0
KST1 150300Z 02003KT 04/M02 A3042 RMK A01 T00391021  RH  066%=      5-min Rain = 0
KST1 150305Z 02004KT 04/M02 A3042 RMK A01 T00391019  RH  067%=      5-min Rain = 0
KST1 150310Z 02004KT 04/M02 A3042 RMK A01 T00401019  RH  066%=      5-min Rain = 0
KST1 150315Z 02004KT 04/M02 A3042 RMK A01 T00381020  RH  067%=      5-min Rain = 0
KST1 150320Z 02004KT 04/M02 A3042 RMK A01 T00371020  RH  067%=      5-min Rain = 0
KST1 150325Z 02004KT 04/M02 A3042 RMK A01 T00351021  RH  067%=      5-min Rain = 0
KST1 150330Z 02004KT 04/M02 A3042 RMK A01 T00371019  RH  068%=      5-min Rain = 0
KST1 150335Z 03003KT 04/M02 A3043 RMK A01 T00361019  RH  068%=      5-min Rain = 0
KST1 150340Z 03004KT 04/M02 A3043 RMK A01 T00361019  RH  068%=      5-min Rain = 0
KST1 150345Z 03003KT 04/M02 A3043 RMK A01 T00361019  RH  068%=      5-min Rain = 0
KST1 150350Z 03003KT 04/M02 A3043 RMK A01 T00351019  RH  068%=      5-min Rain = 0
KST1 150355Z 03003KT 04/M02 A3043 RMK A01 T00351019  RH  068%=      5-min Rain = 0
KST1 150400Z 03004KT 03/M02 A3043 RMK A01 T00341019  RH  069%=      5-min Rain = 0
KST1 150405Z 03003KT 03/M02 A3043 RMK A01 T00321020  RH  069%=      5-min Rain = 0
KST1 150410Z 03003KT 03/M02 A3043 RMK A01 T00331018  RH  070%=      5-min Rain = 0
KST1 150415Z 03004KT 04/M02 A3043 RMK A01 T00351016  RH  070%=      5-min Rain = 0
KST1 150420Z 03004KT 04/M02 A3043 RMK A01 T00351017  RH  070%=      5-min Rain = 0
KST1 150425Z 04003KT 03/M02 A3043 RMK A01 T00341017  RH  070%=      5-min Rain = 0
KST1 150430Z 04004KT 04/M02 A3043 RMK A01 T00361016  RH  070%=      5-min Rain = 0
KST1 150435Z 04005KT 03/M02 A3043 RMK A01 T00331019  RH  070%=      5-min Rain = 0
KST1 150440Z 04004KT 03/M02 A3043 RMK A01 T00291021  RH  070%=      5-min Rain = 0
KST1 150445Z 04004KT 02/M02 A3043 RMK A01 T00241024  RH  071%=      5-min Rain = 0
KST1 150450Z 03004KT 03/M02 A3043 RMK A01 T00271019  RH  073%=      5-min Rain = 0
KST1 150455Z 04004KT 02/M02 A3043 RMK A01 T00231023  RH  072%=      5-min Rain = 0
KST1 150500Z 04004KT 02/M02 A3043 RMK A01 T00231021  RH  074%=      5-min Rain = 0
KST1 150505Z 04004KT 02/M02 A3043 RMK A01 T00221021  RH  074%=      5-min Rain = 0
KST1 150510Z 04003KT 02/M02 A3043 RMK A01 T00211022  RH  074%=      5-min Rain = 0
KST1 150515Z 04004KT 02/M02 A3043 RMK A01 T00231020  RH  074%=      5-min Rain = 0
KST1 150520Z 03004KT 02/M02 A3043 RMK A01 T00221021  RH  074%=      5-min Rain = 0
KST1 150525Z 03003KT 02/M02 A3044 RMK A01 T00181023  RH  075%=      5-min Rain = 0
KST1 150530Z 03003KT 02/M02 A3044 RMK A01 T00181022  RH  076%=      5-min Rain = 0
KST1 150535Z 03003KT 02/M02 A3044 RMK A01 T00161024  RH  076%=      5-min Rain = 0
KST1 150540Z 03004KT 02/M02 A3044 RMK A01 T00161023  RH  076%=      5-min Rain = 0
KST1 150545Z 03004KT 01/M02 A3043 RMK A01 T00141024  RH  076%=      5-min Rain = 0
KST1 150550Z 03003KT 01/M03 A3043 RMK A01 T00121026  RH  077%=      5-min Rain = 0
KST1 150555Z 03003KT 01/M02 A3043 RMK A01 T00121024  RH  077%=      5-min Rain = 0

Page generated in 0.0091 seconds.